sensor_id;sensor_type;location;lat;lon;timestamp;temperature;humidity
16301;DHT22;8258;51.020;4.248;2023-06-04T00:01:01;14.30;81.00
16301;DHT22;8258;51.020;4.248;2023-06-04T00:03:28;14.30;81.20
16301;DHT22;8258;51.020;4.248;2023-06-04T00:05:55;14.30;82.90
16301;DHT22;8258;51.020;4.248;2023-06-04T00:08:23;14.20;85.80
16301;DHT22;8258;51.020;4.248;2023-06-04T00:10:50;14.20;87.70
16301;DHT22;8258;51.020;4.248;2023-06-04T00:13:17;14.20;88.60
16301;DHT22;8258;51.020;4.248;2023-06-04T00:15:44;14.10;90.30
16301;DHT22;8258;51.020;4.248;2023-06-04T00:18:12;14.00;91.50
16301;DHT22;8258;51.020;4.248;2023-06-04T00:20:40;13.90;92.60
16301;DHT22;8258;51.020;4.248;2023-06-04T00:23:07;14.00;93.00
16301;DHT22;8258;51.020;4.248;2023-06-04T00:25:34;14.00;93.60
16301;DHT22;8258;51.020;4.248;2023-06-04T00:28:01;14.00;93.90
16301;DHT22;8258;51.020;4.248;2023-06-04T00:30:28;13.90;95.30
16301;DHT22;8258;51.020;4.248;2023-06-04T00:32:55;13.80;96.00
16301;DHT22;8258;51.020;4.248;2023-06-04T00:35:23;13.90;97.00
16301;DHT22;8258;51.020;4.248;2023-06-04T00:37:50;13.80;98.30
16301;DHT22;8258;51.020;4.248;2023-06-04T00:40:17;13.80;99.10
16301;DHT22;8258;51.020;4.248;2023-06-04T00:42:44;13.70;99.90
16301;DHT22;8258;51.020;4.248;2023-06-04T00:45:12;13.70;99.90
16301;DHT22;8258;51.020;4.248;2023-06-04T00:47:39;13.70;99.90
16301;DHT22;8258;51.020;4.248;2023-06-04T00:50:08;13.60;99.90
16301;DHT22;8258;51.020;4.248;2023-06-04T00:52:37;13.60;99.90
16301;DHT22;8258;51.020;4.248;2023-06-04T00:55:05;13.50;99.90
16301;DHT22;8258;51.020;4.248;2023-06-04T00:57:32;13.50;99.90
16301;DHT22;8258;51.020;4.248;2023-06-04T00:59:59;13.50;99.90
16301;DHT22;8258;51.020;4.248;2023-06-04T01:02:27;13.50;99.90
16301;DHT22;8258;51.020;4.248;2023-06-04T01:05:01;13.50;99.90
16301;DHT22;8258;51.020;4.248;2023-06-04T01:07:30;13.50;99.90
16301;DHT22;8258;51.020;4.248;2023-06-04T01:09:58;13.50;99.90
16301;DHT22;8258;51.020;4.248;2023-06-04T01:12:26;13.50;99.90
16301;DHT22;8258;51.020;4.248;2023-06-04T01:14:52;13.50;99.90
16301;DHT22;8258;51.020;4.248;2023-06-04T01:17:23;13.40;99.90
16301;DHT22;8258;51.020;4.248;2023-06-04T01:20:05;13.40;99.90
16301;DHT22;8258;51.020;4.248;2023-06-04T01:22:38;13.30;99.90
16301;DHT22;8258;51.020;4.248;2023-06-04T01:25:13;13.30;99.90
16301;DHT22;8258;51.020;4.248;2023-06-04T01:27:46;13.30;99.90
16301;DHT22;8258;51.020;4.248;2023-06-04T01:30:16;13.30;99.90
16301;DHT22;8258;51.020;4.248;2023-06-04T01:32:44;13.20;99.90
16301;DHT22;8258;51.020;4.248;2023-06-04T01:35:12;13.20;99.90
16301;DHT22;8258;51.020;4.248;2023-06-04T01:37:39;13.20;99.90
16301;DHT22;8258;51.020;4.248;2023-06-04T01:40:09;13.10;99.90
16301;DHT22;8258;51.020;4.248;2023-06-04T01:42:36;13.10;99.90
16301;DHT22;8258;51.020;4.248;2023-06-04T01:45:03;13.10;99.90
16301;DHT22;8258;51.020;4.248;2023-06-04T01:47:30;13.10;99.90
16301;DHT22;8258;51.020;4.248;2023-06-04T01:49:57;13.10;99.90
16301;DHT22;8258;51.020;4.248;2023-06-04T01:52:25;13.10;99.90
16301;DHT22;8258;51.020;4.248;2023-06-04T01:54:52;13.00;99.90
16301;DHT22;8258;51.020;4.248;2023-06-04T01:57:20;12.90;99.90
16301;DHT22;8258;51.020;4.248;2023-06-04T01:59:48;12.90;99.90
16301;DHT22;8258;51.020;4.248;2023-06-04T02:02:16;12.90;99.90
16301;DHT22;8258;51.020;4.248;2023-06-04T02:04:44;12.90;99.90
16301;DHT22;8258;51.020;4.248;2023-06-04T02:07:12;12.90;99.90
16301;DHT22;8258;51.020;4.248;2023-06-04T02:09:43;12.90;99.90
16301;DHT22;8258;51.020;4.248;2023-06-04T02:12:10;12.90;99.90
16301;DHT22;8258;51.020;4.248;2023-06-04T02:14:38;12.90;99.90
16301;DHT22;8258;51.020;4.248;2023-06-04T02:17:07;12.80;99.90
16301;DHT22;8258;51.020;4.248;2023-06-04T02:19:38;12.80;99.90
16301;DHT22;8258;51.020;4.248;2023-06-04T02:22:10;12.80;99.90
16301;DHT22;8258;51.020;4.248;2023-06-04T02:24:37;12.80;99.90
16301;DHT22;8258;51.020;4.248;2023-06-04T02:27:08;12.80;99.90
16301;DHT22;8258;51.020;4.248;2023-06-04T02:29:37;12.80;99.90
16301;DHT22;8258;51.020;4.248;2023-06-04T02:32:05;12.80;99.90
16301;DHT22;8258;51.020;4.248;2023-06-04T02:34:32;12.70;99.90
16301;DHT22;8258;51.020;4.248;2023-06-04T02:36:59;12.70;99.90
16301;DHT22;8258;51.020;4.248;2023-06-04T02:39:26;12.70;99.90
16301;DHT22;8258;51.020;4.248;2023-06-04T02:41:53;12.70;99.90
16301;DHT22;8258;51.020;4.248;2023-06-04T02:44:20;12.70;99.90
16301;DHT22;8258;51.020;4.248;2023-06-04T02:46:49;12.60;99.90
16301;DHT22;8258;51.020;4.248;2023-06-04T02:49:16;12.70;99.90
16301;DHT22;8258;51.020;4.248;2023-06-04T02:51:43;12.70;99.90
16301;DHT22;8258;51.020;4.248;2023-06-04T02:54:10;12.60;99.90
16301;DHT22;8258;51.020;4.248;2023-06-04T02:56:37;12.60;99.90
16301;DHT22;8258;51.020;4.248;2023-06-04T02:59:05;12.60;99.90
16301;DHT22;8258;51.020;4.248;2023-06-04T03:01:35;12.50;99.90
16301;DHT22;8258;51.020;4.248;2023-06-04T03:04:03;12.50;99.90
16301;DHT22;8258;51.020;4.248;2023-06-04T03:06:30;12.50;99.90
16301;DHT22;8258;51.020;4.248;2023-06-04T03:08:58;12.50;99.90
16301;DHT22;8258;51.020;4.248;2023-06-04T03:11:27;12.50;99.90
16301;DHT22;8258;51.020;4.248;2023-06-04T03:13:54;12.50;99.90
16301;DHT22;8258;51.020;4.248;2023-06-04T03:16:21;12.40;99.90
16301;DHT22;8258;51.020;4.248;2023-06-04T03:18:48;12.40;99.90
16301;DHT22;8258;51.020;4.248;2023-06-04T03:21:18;12.40;99.90
16301;DHT22;8258;51.020;4.248;2023-06-04T03:23:46;12.40;99.90
16301;DHT22;8258;51.020;4.248;2023-06-04T03:26:14;12.30;99.90
16301;DHT22;8258;51.020;4.248;2023-06-04T03:28:41;12.30;99.90
16301;DHT22;8258;51.020;4.248;2023-06-04T03:31:09;12.30;99.90
16301;DHT22;8258;51.020;4.248;2023-06-04T03:33:36;12.30;99.90
16301;DHT22;8258;51.020;4.248;2023-06-04T03:36:03;12.30;99.90
16301;DHT22;8258;51.020;4.248;2023-06-04T03:38:32;12.30;99.90
16301;DHT22;8258;51.020;4.248;2023-06-04T03:40:59;12.20;99.90
16301;DHT22;8258;51.020;4.248;2023-06-04T03:43:27;12.20;99.90
16301;DHT22;8258;51.020;4.248;2023-06-04T03:45:54;12.20;99.90
16301;DHT22;8258;51.020;4.248;2023-06-04T03:48:21;12.20;99.90
16301;DHT22;8258;51.020;4.248;2023-06-04T03:50:48;12.20;99.90
16301;DHT22;8258;51.020;4.248;2023-06-04T03:53:16;12.20;99.90
16301;DHT22;8258;51.020;4.248;2023-06-04T03:55:45;12.20;99.90
16301;DHT22;8258;51.020;4.248;2023-06-04T03:58:12;12.20;99.90
16301;DHT22;8258;51.020;4.248;2023-06-04T04:00:40;12.20;99.90
16301;DHT22;8258;51.020;4.248;2023-06-04T04:03:07;12.20;99.90
16301;DHT22;8258;51.020;4.248;2023-06-04T04:05:35;12.20;99.90
16301;DHT22;8258;51.020;4.248;2023-06-04T04:08:03;12.20;99.90
16301;DHT22;8258;51.020;4.248;2023-06-04T04:10:30;12.20;99.90
16301;DHT22;8258;51.020;4.248;2023-06-04T04:12:58;12.10;99.90
16301;DHT22;8258;51.020;4.248;2023-06-04T04:15:25;12.10;99.90
16301;DHT22;8258;51.020;4.248;2023-06-04T04:17:52;12.20;99.90
16301;DHT22;8258;51.020;4.248;2023-06-04T04:20:19;12.30;99.90
16301;DHT22;8258;51.020;4.248;2023-06-04T04:22:46;12.30;99.90
16301;DHT22;8258;51.020;4.248;2023-06-04T04:25:13;12.40;99.90
16301;DHT22;8258;51.020;4.248;2023-06-04T04:27:40;12.30;99.90
16301;DHT22;8258;51.020;4.248;2023-06-04T04:30:10;12.40;99.90
16301;DHT22;8258;51.020;4.248;2023-06-04T04:32:38;12.40;99.90
16301;DHT22;8258;51.020;4.248;2023-06-04T04:35:06;12.40;99.90
16301;DHT22;8258;51.020;4.248;2023-06-04T04:37:34;12.50;99.90
16301;DHT22;8258;51.020;4.248;2023-06-04T04:40:06;12.50;99.90
16301;DHT22;8258;51.020;4.248;2023-06-04T04:42:36;12.50;99.90
16301;DHT22;8258;51.020;4.248;2023-06-04T04:45:03;12.60;99.90
16301;DHT22;8258;51.020;4.248;2023-06-04T04:47:32;12.60;99.90
16301;DHT22;8258;51.020;4.248;2023-06-04T04:50:00;12.60;99.90
16301;DHT22;8258;51.020;4.248;2023-06-04T04:52:27;12.70;99.90
16301;DHT22;8258;51.020;4.248;2023-06-04T04:54:54;12.80;99.90
16301;DHT22;8258;51.020;4.248;2023-06-04T04:57:23;12.80;99.90
16301;DHT22;8258;51.020;4.248;2023-06-04T04:59:50;12.80;99.90
16301;DHT22;8258;51.020;4.248;2023-06-04T05:02:17;12.90;99.90
16301;DHT22;8258;51.020;4.248;2023-06-04T05:04:46;12.90;99.90
16301;DHT22;8258;51.020;4.248;2023-06-04T05:07:13;13.00;99.90
16301;DHT22;8258;51.020;4.248;2023-06-04T05:09:40;13.00;99.90
16301;DHT22;8258;51.020;4.248;2023-06-04T05:12:07;13.10;99.90
16301;DHT22;8258;51.020;4.248;2023-06-04T05:14:34;13.10;99.90
16301;DHT22;8258;51.020;4.248;2023-06-04T05:17:02;13.20;99.90
16301;DHT22;8258;51.020;4.248;2023-06-04T05:19:30;13.30;99.90
16301;DHT22;8258;51.020;4.248;2023-06-04T05:22:00;13.30;99.90
16301;DHT22;8258;51.020;4.248;2023-06-04T05:24:27;13.40;99.90
16301;DHT22;8258;51.020;4.248;2023-06-04T05:26:54;13.40;99.90
16301;DHT22;8258;51.020;4.248;2023-06-04T05:29:22;13.50;99.90
16301;DHT22;8258;51.020;4.248;2023-06-04T05:31:49;13.60;99.90
16301;DHT22;8258;51.020;4.248;2023-06-04T05:34:16;13.60;99.90
16301;DHT22;8258;51.020;4.248;2023-06-04T05:36:43;13.60;99.90
16301;DHT22;8258;51.020;4.248;2023-06-04T05:39:12;13.70;99.90
16301;DHT22;8258;51.020;4.248;2023-06-04T05:41:39;13.80;99.90
16301;DHT22;8258;51.020;4.248;2023-06-04T05:44:07;13.80;99.90
16301;DHT22;8258;51.020;4.248;2023-06-04T05:46:34;13.90;99.90
16301;DHT22;8258;51.020;4.248;2023-06-04T05:49:02;14.00;99.90
16301;DHT22;8258;51.020;4.248;2023-06-04T05:51:29;14.10;99.90
16301;DHT22;8258;51.020;4.248;2023-06-04T05:53:56;14.10;99.90
16301;DHT22;8258;51.020;4.248;2023-06-04T05:56:25;14.20;99.90
16301;DHT22;8258;51.020;4.248;2023-06-04T05:58:52;14.30;99.90
16301;DHT22;8258;51.020;4.248;2023-06-04T06:01:19;14.40;99.90
16301;DHT22;8258;51.020;4.248;2023-06-04T06:03:47;14.50;99.90
16301;DHT22;8258;51.020;4.248;2023-06-04T06:06:14;14.60;99.90
16301;DHT22;8258;51.020;4.248;2023-06-04T06:08:41;14.60;99.90
16301;DHT22;8258;51.020;4.248;2023-06-04T06:11:09;14.70;99.90
16301;DHT22;8258;51.020;4.248;2023-06-04T06:13:37;14.80;99.90
16301;DHT22;8258;51.020;4.248;2023-06-04T06:16:04;14.90;99.90
16301;DHT22;8258;51.020;4.248;2023-06-04T06:18:31;15.00;99.90
16301;DHT22;8258;51.020;4.248;2023-06-04T06:20:58;15.10;99.90
16301;DHT22;8258;51.020;4.248;2023-06-04T06:23:25;15.20;99.90
16301;DHT22;8258;51.020;4.248;2023-06-04T06:25:52;15.30;99.90
16301;DHT22;8258;51.020;4.248;2023-06-04T06:28:19;15.50;99.90
16301;DHT22;8258;51.020;4.248;2023-06-04T06:30:48;15.60;99.90
16301;DHT22;8258;51.020;4.248;2023-06-04T06:33:15;15.80;99.90
16301;DHT22;8258;51.020;4.248;2023-06-04T06:35:47;15.90;99.90
16301;DHT22;8258;51.020;4.248;2023-06-04T06:38:14;16.10;99.90
16301;DHT22;8258;51.020;4.248;2023-06-04T06:40:41;16.20;99.90
16301;DHT22;8258;51.020;4.248;2023-06-04T06:43:08;16.40;99.90
16301;DHT22;8258;51.020;4.248;2023-06-04T06:45:35;16.40;99.90
16301;DHT22;8258;51.020;4.248;2023-06-04T06:48:04;16.40;99.90
16301;DHT22;8258;51.020;4.248;2023-06-04T06:50:31;16.40;99.90
16301;DHT22;8258;51.020;4.248;2023-06-04T06:52:59;16.70;99.90
16301;DHT22;8258;51.020;4.248;2023-06-04T06:55:26;16.90;99.90
16301;DHT22;8258;51.020;4.248;2023-06-04T06:57:52;17.10;99.90
16301;DHT22;8258;51.020;4.248;2023-06-04T07:00:19;17.30;99.90
16301;DHT22;8258;51.020;4.248;2023-06-04T07:02:46;17.40;99.90
16301;DHT22;8258;51.020;4.248;2023-06-04T07:05:15;17.50;99.90
16301;DHT22;8258;51.020;4.248;2023-06-04T07:07:43;17.60;99.90
16301;DHT22;8258;51.020;4.248;2023-06-04T07:10:10;17.70;99.90
16301;DHT22;8258;51.020;4.248;2023-06-04T07:12:37;17.90;99.90
16301;DHT22;8258;51.020;4.248;2023-06-04T07:15:06;18.10;99.90
16301;DHT22;8258;51.020;4.248;2023-06-04T07:17:33;18.20;99.90
16301;DHT22;8258;51.020;4.248;2023-06-04T07:20:01;18.60;99.90
16301;DHT22;8258;51.020;4.248;2023-06-04T07:22:30;19.40;99.90
16301;DHT22;8258;51.020;4.248;2023-06-04T07:24:57;20.20;98.60
16301;DHT22;8258;51.020;4.248;2023-06-04T07:27:25;20.80;95.40
16301;DHT22;8258;51.020;4.248;2023-06-04T07:29:52;21.20;93.70
16301;DHT22;8258;51.020;4.248;2023-06-04T07:32:19;21.70;92.80
16301;DHT22;8258;51.020;4.248;2023-06-04T07:34:46;22.00;88.70
16301;DHT22;8258;51.020;4.248;2023-06-04T07:37:13;22.50;84.60
16301;DHT22;8258;51.020;4.248;2023-06-04T07:39:42;23.10;82.60
16301;DHT22;8258;51.020;4.248;2023-06-04T07:42:09;23.80;77.60
16301;DHT22;8258;51.020;4.248;2023-06-04T07:44:36;24.40;72.20
16301;DHT22;8258;51.020;4.248;2023-06-04T07:47:04;25.10;64.70
16301;DHT22;8258;51.020;4.248;2023-06-04T07:49:31;24.70;63.40
16301;DHT22;8258;51.020;4.248;2023-06-04T07:51:58;24.70;64.50
16301;DHT22;8258;51.020;4.248;2023-06-04T07:54:26;25.40;58.90
16301;DHT22;8258;51.020;4.248;2023-06-04T07:56:54;25.90;55.90
16301;DHT22;8258;51.020;4.248;2023-06-04T07:59:23;25.60;52.70
16301;DHT22;8258;51.020;4.248;2023-06-04T08:01:50;25.30;54.40
16301;DHT22;8258;51.020;4.248;2023-06-04T08:04:17;25.50;52.80
16301;DHT22;8258;51.020;4.248;2023-06-04T08:06:44;26.00;50.40
16301;DHT22;8258;51.020;4.248;2023-06-04T08:09:12;25.90;49.80
16301;DHT22;8258;51.020;4.248;2023-06-04T08:11:40;26.40;48.20
16301;DHT22;8258;51.020;4.248;2023-06-04T08:14:10;26.70;45.50
16301;DHT22;8258;51.020;4.248;2023-06-04T08:16:38;26.20;46.00
16301;DHT22;8258;51.020;4.248;2023-06-04T08:19:06;26.20;43.20
16301;DHT22;8258;51.020;4.248;2023-06-04T08:21:34;25.90;41.60
16301;DHT22;8258;51.020;4.248;2023-06-04T08:24:01;25.20;42.50
16301;DHT22;8258;51.020;4.248;2023-06-04T08:26:28;24.40;43.60
16301;DHT22;8258;51.020;4.248;2023-06-04T08:28:56;24.40;45.60
16301;DHT22;8258;51.020;4.248;2023-06-04T08:31:24;25.70;44.10
16301;DHT22;8258;51.020;4.248;2023-06-04T08:33:52;26.70;42.00
16301;DHT22;8258;51.020;4.248;2023-06-04T08:36:18;27.20;41.00
16301;DHT22;8258;51.020;4.248;2023-06-04T08:38:45;27.80;39.10
16301;DHT22;8258;51.020;4.248;2023-06-04T08:41:22;27.70;38.40
16301;DHT22;8258;51.020;4.248;2023-06-04T08:43:54;27.70;36.20
16301;DHT22;8258;51.020;4.248;2023-06-04T08:46:23;28.20;37.10
16301;DHT22;8258;51.020;4.248;2023-06-04T08:48:52;29.00;34.60
16301;DHT22;8258;51.020;4.248;2023-06-04T08:51:21;28.80;32.50
16301;DHT22;8258;51.020;4.248;2023-06-04T08:53:49;28.10;31.10
16301;DHT22;8258;51.020;4.248;2023-06-04T08:56:19;28.10;32.40
16301;DHT22;8258;51.020;4.248;2023-06-04T08:58:47;28.30;31.00
16301;DHT22;8258;51.020;4.248;2023-06-04T09:01:15;28.80;30.80
16301;DHT22;8258;51.020;4.248;2023-06-04T09:03:44;28.20;31.60
16301;DHT22;8258;51.020;4.248;2023-06-04T09:06:12;28.30;31.20
16301;DHT22;8258;51.020;4.248;2023-06-04T09:08:40;28.30;29.80
16301;DHT22;8258;51.020;4.248;2023-06-04T09:11:11;28.20;30.60
16301;DHT22;8258;51.020;4.248;2023-06-04T09:13:40;28.70;29.50
16301;DHT22;8258;51.020;4.248;2023-06-04T09:16:10;29.00;28.50
16301;DHT22;8258;51.020;4.248;2023-06-04T09:18:37;29.40;28.10
16301;DHT22;8258;51.020;4.248;2023-06-04T09:21:06;29.10;28.10
16301;DHT22;8258;51.020;4.248;2023-06-04T09:23:35;28.90;28.00
16301;DHT22;8258;51.020;4.248;2023-06-04T09:26:08;28.30;27.50
16301;DHT22;8258;51.020;4.248;2023-06-04T09:28:35;27.90;28.60
16301;DHT22;8258;51.020;4.248;2023-06-04T09:31:02;28.50;28.60
16301;DHT22;8258;51.020;4.248;2023-06-04T09:33:29;29.30;28.00
16301;DHT22;8258;51.020;4.248;2023-06-04T09:35:57;29.10;26.40
16301;DHT22;8258;51.020;4.248;2023-06-04T09:38:33;28.90;24.90
16301;DHT22;8258;51.020;4.248;2023-06-04T09:41:00;28.40;26.80
16301;DHT22;8258;51.020;4.248;2023-06-04T09:43:30;28.00;26.10
16301;DHT22;8258;51.020;4.248;2023-06-04T09:46:08;28.20;27.50
16301;DHT22;8258;51.020;4.248;2023-06-04T09:48:36;29.30;27.40
16301;DHT22;8258;51.020;4.248;2023-06-04T09:51:07;30.10;25.90
16301;DHT22;8258;51.020;4.248;2023-06-04T09:53:37;31.00;25.30
16301;DHT22;8258;51.020;4.248;2023-06-04T09:56:05;31.30;23.10
16301;DHT22;8258;51.020;4.248;2023-06-04T09:58:34;30.10;22.00
16301;DHT22;8258;51.020;4.248;2023-06-04T10:01:04;29.20;22.80
16301;DHT22;8258;51.020;4.248;2023-06-04T10:03:32;28.90;23.70
16301;DHT22;8258;51.020;4.248;2023-06-04T10:06:01;29.40;23.30
16301;DHT22;8258;51.020;4.248;2023-06-04T10:08:29;30.00;23.70
16301;DHT22;8258;51.020;4.248;2023-06-04T10:10:59;30.50;23.00
16301;DHT22;8258;51.020;4.248;2023-06-04T10:13:28;31.10;22.00
16301;DHT22;8258;51.020;4.248;2023-06-04T10:15:57;31.30;21.60
16301;DHT22;8258;51.020;4.248;2023-06-04T10:18:27;31.40;21.30
16301;DHT22;8258;51.020;4.248;2023-06-04T10:20:55;31.10;20.70
16301;DHT22;8258;51.020;4.248;2023-06-04T10:23:23;30.40;21.30
16301;DHT22;8258;51.020;4.248;2023-06-04T10:25:51;31.10;20.60
16301;DHT22;8258;51.020;4.248;2023-06-04T10:28:22;31.40;21.40
16301;DHT22;8258;51.020;4.248;2023-06-04T10:30:49;31.10;20.80
16301;DHT22;8258;51.020;4.248;2023-06-04T10:33:18;30.60;19.90
16301;DHT22;8258;51.020;4.248;2023-06-04T10:35:50;30.20;21.60
16301;DHT22;8258;51.020;4.248;2023-06-04T10:38:17;30.10;22.50
16301;DHT22;8258;51.020;4.248;2023-06-04T10:40:46;30.50;21.40
16301;DHT22;8258;51.020;4.248;2023-06-04T10:43:14;31.60;20.20
16301;DHT22;8258;51.020;4.248;2023-06-04T10:45:44;32.00;18.50
16301;DHT22;8258;51.020;4.248;2023-06-04T10:48:12;31.60;19.40
16301;DHT22;8258;51.020;4.248;2023-06-04T10:50:48;31.80;19.50
16301;DHT22;8258;51.020;4.248;2023-06-04T10:53:17;31.80;18.40
16301;DHT22;8258;51.020;4.248;2023-06-04T10:55:45;31.70;18.00
16301;DHT22;8258;51.020;4.248;2023-06-04T10:58:12;31.20;18.20
16301;DHT22;8258;51.020;4.248;2023-06-04T11:00:40;31.70;18.70
16301;DHT22;8258;51.020;4.248;2023-06-04T11:03:10;32.10;19.10
16301;DHT22;8258;51.020;4.248;2023-06-04T11:05:38;32.10;18.80
16301;DHT22;8258;51.020;4.248;2023-06-04T11:08:06;32.80;17.50
16301;DHT22;8258;51.020;4.248;2023-06-04T11:10:35;32.20;17.70
16301;DHT22;8258;51.020;4.248;2023-06-04T11:13:03;32.90;17.90
16301;DHT22;8258;51.020;4.248;2023-06-04T11:15:40;32.40;17.70
16301;DHT22;8258;51.020;4.248;2023-06-04T11:18:13;32.90;18.10
16301;DHT22;8258;51.020;4.248;2023-06-04T11:20:41;33.50;16.90
16301;DHT22;8258;51.020;4.248;2023-06-04T11:23:08;33.40;17.50
16301;DHT22;8258;51.020;4.248;2023-06-04T11:25:38;33.40;15.70
16301;DHT22;8258;51.020;4.248;2023-06-04T11:28:05;33.50;16.20
16301;DHT22;8258;51.020;4.248;2023-06-04T11:30:32;33.00;16.20
16301;DHT22;8258;51.020;4.248;2023-06-04T11:33:00;33.30;16.10
16301;DHT22;8258;51.020;4.248;2023-06-04T11:35:29;32.80;16.70
16301;DHT22;8258;51.020;4.248;2023-06-04T11:37:57;33.70;16.90
16301;DHT22;8258;51.020;4.248;2023-06-04T11:40:24;34.40;15.60
16301;DHT22;8258;51.020;4.248;2023-06-04T11:42:52;34.70;14.90
16301;DHT22;8258;51.020;4.248;2023-06-04T11:45:20;34.00;15.20
16301;DHT22;8258;51.020;4.248;2023-06-04T11:47:49;33.80;14.90
16301;DHT22;8258;51.020;4.248;2023-06-04T11:50:16;33.70;15.30
16301;DHT22;8258;51.020;4.248;2023-06-04T11:52:45;34.30;15.70
16301;DHT22;8258;51.020;4.248;2023-06-04T11:55:12;34.80;14.00
16301;DHT22;8258;51.020;4.248;2023-06-04T11:57:40;34.80;13.70
16301;DHT22;8258;51.020;4.248;2023-06-04T12:00:08;34.60;14.60
16301;DHT22;8258;51.020;4.248;2023-06-04T12:02:36;34.30;14.10
16301;DHT22;8258;51.020;4.248;2023-06-04T12:05:13;34.40;13.50
16301;DHT22;8258;51.020;4.248;2023-06-04T12:07:40;34.20;14.20
16301;DHT22;8258;51.020;4.248;2023-06-04T12:10:09;34.80;14.60
16301;DHT22;8258;51.020;4.248;2023-06-04T12:12:37;34.80;14.80
16301;DHT22;8258;51.020;4.248;2023-06-04T12:15:06;35.50;13.60
16301;DHT22;8258;51.020;4.248;2023-06-04T12:17:35;35.50;13.60
16301;DHT22;8258;51.020;4.248;2023-06-04T12:20:03;35.20;13.10
16301;DHT22;8258;51.020;4.248;2023-06-04T12:22:31;34.20;13.60
16301;DHT22;8258;51.020;4.248;2023-06-04T12:24:58;33.80;13.10
16301;DHT22;8258;51.020;4.248;2023-06-04T12:27:29;33.50;13.90
16301;DHT22;8258;51.020;4.248;2023-06-04T12:29:58;33.50;13.00
16301;DHT22;8258;51.020;4.248;2023-06-04T12:32:25;34.20;13.20
16301;DHT22;8258;51.020;4.248;2023-06-04T12:34:52;34.70;12.80
16301;DHT22;8258;51.020;4.248;2023-06-04T12:37:20;35.50;13.20
16301;DHT22;8258;51.020;4.248;2023-06-04T12:39:47;35.10;13.40
16301;DHT22;8258;51.020;4.248;2023-06-04T12:42:14;35.10;13.20
16301;DHT22;8258;51.020;4.248;2023-06-04T12:44:42;35.10;13.90
16301;DHT22;8258;51.020;4.248;2023-06-04T12:47:09;34.80;12.70
16301;DHT22;8258;51.020;4.248;2023-06-04T12:49:36;35.00;12.80
16301;DHT22;8258;51.020;4.248;2023-06-04T12:52:03;34.80;13.20
16301;DHT22;8258;51.020;4.248;2023-06-04T12:54:31;34.80;13.10
16301;DHT22;8258;51.020;4.248;2023-06-04T12:56:59;34.70;12.00
16301;DHT22;8258;51.020;4.248;2023-06-04T12:59:27;33.80;11.80
16301;DHT22;8258;51.020;4.248;2023-06-04T13:01:55;33.40;13.30
16301;DHT22;8258;51.020;4.248;2023-06-04T13:04:23;32.90;13.10
16301;DHT22;8258;51.020;4.248;2023-06-04T13:06:50;33.50;14.00
16301;DHT22;8258;51.020;4.248;2023-06-04T13:09:21;34.00;13.00
16301;DHT22;8258;51.020;4.248;2023-06-04T13:11:48;34.00;13.00
16301;DHT22;8258;51.020;4.248;2023-06-04T13:14:15;33.80;13.30
16301;DHT22;8258;51.020;4.248;2023-06-04T13:16:42;34.40;13.20
16301;DHT22;8258;51.020;4.248;2023-06-04T13:19:12;34.90;12.40
16301;DHT22;8258;51.020;4.248;2023-06-04T13:21:39;34.70;11.90
16301;DHT22;8258;51.020;4.248;2023-06-04T13:24:09;34.00;11.20
16301;DHT22;8258;51.020;4.248;2023-06-04T13:26:36;33.20;12.40
16301;DHT22;8258;51.020;4.248;2023-06-04T13:29:04;34.40;13.50
16301;DHT22;8258;51.020;4.248;2023-06-04T13:31:31;34.80;13.30
16301;DHT22;8258;51.020;4.248;2023-06-04T13:33:58;34.90;13.40
16301;DHT22;8258;51.020;4.248;2023-06-04T13:36:26;35.30;12.20
16301;DHT22;8258;51.020;4.248;2023-06-04T13:38:53;35.00;12.20
16301;DHT22;8258;51.020;4.248;2023-06-04T13:41:20;34.80;11.90
16301;DHT22;8258;51.020;4.248;2023-06-04T13:43:47;34.70;12.30
16301;DHT22;8258;51.020;4.248;2023-06-04T13:46:14;35.30;12.00
16301;DHT22;8258;51.020;4.248;2023-06-04T13:48:41;34.80;12.70
16301;DHT22;8258;51.020;4.248;2023-06-04T13:51:08;35.10;11.80
16301;DHT22;8258;51.020;4.248;2023-06-04T13:53:36;35.80;12.30
16301;DHT22;8258;51.020;4.248;2023-06-04T13:56:04;36.20;11.60
16301;DHT22;8258;51.020;4.248;2023-06-04T13:58:30;35.30;10.60
16301;DHT22;8258;51.020;4.248;2023-06-04T14:00:57;34.40;11.50
16301;DHT22;8258;51.020;4.248;2023-06-04T14:03:24;34.40;12.60
16301;DHT22;8258;51.020;4.248;2023-06-04T14:05:51;34.80;12.30
16301;DHT22;8258;51.020;4.248;2023-06-04T14:08:18;34.90;11.20
16301;DHT22;8258;51.020;4.248;2023-06-04T14:10:47;35.50;11.90
16301;DHT22;8258;51.020;4.248;2023-06-04T14:13:14;35.60;11.50
16301;DHT22;8258;51.020;4.248;2023-06-04T14:15:41;36.30;11.50
16301;DHT22;8258;51.020;4.248;2023-06-04T14:18:08;35.80;12.00
16301;DHT22;8258;51.020;4.248;2023-06-04T14:20:34;35.20;12.70
16301;DHT22;8258;51.020;4.248;2023-06-04T14:23:01;35.00;12.70
16301;DHT22;8258;51.020;4.248;2023-06-04T14:25:28;35.00;12.80
16301;DHT22;8258;51.020;4.248;2023-06-04T14:27:57;35.50;11.30
16301;DHT22;8258;51.020;4.248;2023-06-04T14:30:24;34.70;11.10
16301;DHT22;8258;51.020;4.248;2023-06-04T14:32:51;34.60;11.20
16301;DHT22;8258;51.020;4.248;2023-06-04T14:35:20;34.70;11.80
16301;DHT22;8258;51.020;4.248;2023-06-04T14:37:47;34.90;11.00
16301;DHT22;8258;51.020;4.248;2023-06-04T14:40:14;34.40;13.00
16301;DHT22;8258;51.020;4.248;2023-06-04T14:42:44;35.40;12.10
16301;DHT22;8258;51.020;4.248;2023-06-04T14:45:17;35.80;12.50
16301;DHT22;8258;51.020;4.248;2023-06-04T14:47:44;35.50;11.50
16301;DHT22;8258;51.020;4.248;2023-06-04T14:50:11;35.00;11.10
16301;DHT22;8258;51.020;4.248;2023-06-04T14:52:38;34.50;11.50
16301;DHT22;8258;51.020;4.248;2023-06-04T14:55:06;34.30;12.40
16301;DHT22;8258;51.020;4.248;2023-06-04T14:57:33;34.50;12.30
16301;DHT22;8258;51.020;4.248;2023-06-04T15:00:00;34.40;12.10
16301;DHT22;8258;51.020;4.248;2023-06-04T15:02:29;34.70;12.20
16301;DHT22;8258;51.020;4.248;2023-06-04T15:04:56;35.00;12.90
16301;DHT22;8258;51.020;4.248;2023-06-04T15:07:23;34.20;12.80
16301;DHT22;8258;51.020;4.248;2023-06-04T15:09:50;34.30;12.50
16301;DHT22;8258;51.020;4.248;2023-06-04T15:12:17;34.40;12.30
16301;DHT22;8258;51.020;4.248;2023-06-04T15:14:45;34.20;12.30
16301;DHT22;8258;51.020;4.248;2023-06-04T15:17:12;34.40;12.80
16301;DHT22;8258;51.020;4.248;2023-06-04T15:19:40;34.40;12.50
16301;DHT22;8258;51.020;4.248;2023-06-04T15:22:07;33.60;12.70
16301;DHT22;8258;51.020;4.248;2023-06-04T15:24:34;32.90;13.50
16301;DHT22;8258;51.020;4.248;2023-06-04T15:27:01;33.00;12.80
16301;DHT22;8258;51.020;4.248;2023-06-04T15:29:28;32.90;13.20
16301;DHT22;8258;51.020;4.248;2023-06-04T15:31:55;33.20;12.90
16301;DHT22;8258;51.020;4.248;2023-06-04T15:34:23;33.60;13.40
16301;DHT22;8258;51.020;4.248;2023-06-04T15:36:51;33.10;13.10
16301;DHT22;8258;51.020;4.248;2023-06-04T15:39:18;33.00;13.70
16301;DHT22;8258;51.020;4.248;2023-06-04T15:41:45;33.10;13.30
16301;DHT22;8258;51.020;4.248;2023-06-04T15:44:12;33.60;13.00
16301;DHT22;8258;51.020;4.248;2023-06-04T15:46:39;33.80;13.80
16301;DHT22;8258;51.020;4.248;2023-06-04T15:49:06;32.80;13.40